createdAt,value
2024-04-26T00:00:19.869Z,11.30
2024-04-26T00:01:27.828Z,10.60
2024-04-26T00:02:18.636Z,13.40
2024-04-26T00:03:06.703Z,10.60
2024-04-26T00:03:55.260Z,11.20
2024-04-26T00:04:43.718Z,9.30
2024-04-26T00:05:31.669Z,11.10
2024-04-26T00:06:19.642Z,8.50
2024-04-26T00:07:07.746Z,8.60
2024-04-26T00:07:56.174Z,8.40
2024-04-26T00:08:45.003Z,9.40
2024-04-26T00:09:32.979Z,8.30
2024-04-26T00:10:20.944Z,9.00
2024-04-26T00:11:09.298Z,11.60
2024-04-26T00:11:57.202Z,9.10
2024-04-26T00:12:45.513Z,8.70
2024-04-26T00:13:34.219Z,11.00
2024-04-26T00:14:22.349Z,10.30
2024-04-26T00:15:10.313Z,9.40
2024-04-26T00:15:59.573Z,10.00
2024-04-26T00:16:47.523Z,14.80
2024-04-26T00:17:35.545Z,9.10
2024-04-26T00:18:23.512Z,8.70
2024-04-26T00:19:11.453Z,13.00
2024-04-26T00:19:59.280Z,12.60
2024-04-26T00:20:47.118Z,9.20
2024-04-26T00:21:41.528Z,14.30
2024-04-26T00:22:29.471Z,15.40
2024-04-26T00:23:17.658Z,9.40
2024-04-26T00:24:05.751Z,13.80
2024-04-26T00:24:53.653Z,10.40
2024-04-26T00:25:41.802Z,9.00
2024-04-26T00:26:29.932Z,11.20
2024-04-26T00:27:18.104Z,16.50
2024-04-26T00:28:06.380Z,14.00
2024-04-26T00:28:54.356Z,11.00
2024-04-26T00:29:42.396Z,15.70
2024-04-26T00:30:31.275Z,17.10
2024-04-26T00:32:42.840Z,13.30
2024-04-26T00:33:30.891Z,11.60
2024-04-26T00:34:18.732Z,12.40
2024-04-26T00:35:06.763Z,11.10
2024-04-26T00:35:54.746Z,13.60
2024-04-26T00:36:42.852Z,12.30
2024-04-26T00:37:30.698Z,11.00
2024-04-26T00:38:18.548Z,13.50
2024-04-26T00:39:06.386Z,12.30
2024-04-26T00:39:54.114Z,12.10
2024-04-26T00:40:42.659Z,12.00
2024-04-26T00:41:30.394Z,11.60
2024-04-26T00:42:18.601Z,17.60
2024-04-26T00:43:06.304Z,11.40
2024-04-26T00:44:07.806Z,14.90
2024-04-26T00:44:55.560Z,12.80
2024-04-26T00:45:43.401Z,14.10
2024-04-26T00:46:31.386Z,11.40
2024-04-26T00:47:19.480Z,13.50
2024-04-26T00:48:07.636Z,14.50
2024-04-26T00:48:55.927Z,11.20
2024-04-26T00:49:45.489Z,16.00
2024-04-26T00:50:33.262Z,9.30
2024-04-26T00:51:21.173Z,14.10
2024-04-26T00:52:09.007Z,10.80
2024-04-26T00:52:57.715Z,11.60
2024-04-26T00:53:45.614Z,18.50
2024-04-26T00:54:33.511Z,12.10
2024-04-26T00:55:21.603Z,13.20
2024-04-26T00:56:09.439Z,11.40
2024-04-26T00:57:00.871Z,11.90
2024-04-26T00:57:49.157Z,14.60
2024-04-26T00:58:39.936Z,13.30
2024-04-26T00:59:29.957Z,12.40
2024-04-26T01:00:18.518Z,15.40
2024-04-26T01:01:07.162Z,11.10
2024-04-26T01:01:55.159Z,14.60
2024-04-26T01:02:44.305Z,12.00
2024-04-26T01:03:32.095Z,12.00
2024-04-26T01:04:19.875Z,13.60
2024-04-26T01:05:07.800Z,16.80
2024-04-26T01:05:55.549Z,11.70
2024-04-26T01:06:43.280Z,16.80
2024-04-26T01:07:30.998Z,13.00
2024-04-26T01:08:19.958Z,15.70
2024-04-26T01:09:07.698Z,16.60
2024-04-26T01:09:55.382Z,13.80
2024-04-26T01:10:43.042Z,11.80
2024-04-26T01:11:30.886Z,11.60
2024-04-26T01:12:19.430Z,11.60
2024-04-26T01:13:07.945Z,11.90
2024-04-26T01:13:55.903Z,13.60
2024-04-26T01:14:43.679Z,12.50
2024-04-26T01:15:31.446Z,10.10
2024-04-26T01:16:19.134Z,14.30
2024-04-26T01:17:06.828Z,16.30
2024-04-26T01:17:54.625Z,13.60
2024-04-26T01:18:42.515Z,12.30
2024-04-26T01:19:30.413Z,11.00
2024-04-26T01:20:18.114Z,12.90
2024-04-26T01:21:05.999Z,9.90
2024-04-26T01:22:05.002Z,13.90
2024-04-26T01:22:52.802Z,12.50
2024-04-26T01:23:40.767Z,12.10
2024-04-26T01:24:28.543Z,14.70
2024-04-26T01:25:16.295Z,12.90
2024-04-26T01:26:05.486Z,11.70
2024-04-26T01:26:53.186Z,13.60
2024-04-26T01:27:41.340Z,14.40
2024-04-26T01:28:30.623Z,13.70
2024-04-26T01:29:19.603Z,11.80
2024-04-26T01:30:09.708Z,14.60
2024-04-26T01:30:57.743Z,11.80
2024-04-26T01:31:45.595Z,10.80
2024-04-26T01:32:33.408Z,11.50
2024-04-26T01:33:21.477Z,13.90
2024-04-26T01:34:09.412Z,11.50
2024-04-26T01:34:57.081Z,10.60
2024-04-26T01:35:44.877Z,12.20
2024-04-26T01:36:32.672Z,8.50
2024-04-26T01:37:20.796Z,9.90
2024-04-26T01:38:08.711Z,11.80
2024-04-26T01:38:56.438Z,9.10
2024-04-26T01:39:44.104Z,11.50
2024-04-26T01:40:31.843Z,12.20
2024-04-26T01:41:19.448Z,13.50
2024-04-26T01:42:07.223Z,12.10
2024-04-26T01:42:55.033Z,12.50
2024-04-26T01:43:42.688Z,14.20
2024-04-26T01:44:31.594Z,13.30
2024-04-26T01:45:19.319Z,14.50
2024-04-26T01:46:10.316Z,13.10
2024-04-26T01:47:01.120Z,12.10
2024-04-26T01:47:49.065Z,15.60
2024-04-26T01:48:36.948Z,9.60
2024-04-26T01:49:24.643Z,11.80
2024-04-26T01:50:12.354Z,12.00
2024-04-26T01:51:00.123Z,9.90
2024-04-26T01:51:47.884Z,15.20
2024-04-26T01:52:35.528Z,17.30
2024-04-26T01:53:23.200Z,14.90
2024-04-26T01:54:10.984Z,11.00
2024-04-26T01:54:58.728Z,13.20
2024-04-26T01:55:46.403Z,14.40
2024-04-26T01:56:34.155Z,12.10
2024-04-26T01:57:21.836Z,11.00
2024-04-26T01:58:09.556Z,13.00
2024-04-26T01:58:57.284Z,14.50
2024-04-26T01:59:44.893Z,10.30
2024-04-26T02:00:33.999Z,12.90
2024-04-26T02:01:24.686Z,11.70
2024-04-26T02:02:12.399Z,8.70
2024-04-26T02:03:00.406Z,12.30
2024-04-26T02:03:48.433Z,9.80
2024-04-26T02:04:36.872Z,13.00
2024-04-26T02:05:24.920Z,11.60
2024-04-26T02:06:12.941Z,16.40
2024-04-26T02:07:00.814Z,14.30
2024-04-26T02:07:48.734Z,15.60
2024-04-26T02:08:37.353Z,15.40
2024-04-26T02:09:25.743Z,11.30
2024-04-26T02:10:14.949Z,12.40
2024-04-26T02:11:02.935Z,11.70
2024-04-26T02:11:50.920Z,12.80
2024-04-26T02:12:38.825Z,14.90
2024-04-26T02:13:26.591Z,12.70
2024-04-26T02:14:14.557Z,8.50
2024-04-26T02:15:02.657Z,11.00
2024-04-26T02:15:53.066Z,12.70
2024-04-26T02:16:40.954Z,13.00
2024-04-26T02:17:29.925Z,10.80
2024-04-26T02:18:18.031Z,8.60
2024-04-26T02:19:05.972Z,11.10
2024-04-26T02:19:53.776Z,11.00
2024-04-26T02:20:43.067Z,10.30
2024-04-26T02:21:30.952Z,16.10
2024-04-26T02:22:18.687Z,11.50
2024-04-26T02:23:06.385Z,11.50
2024-04-26T02:23:54.177Z,10.20
2024-04-26T02:24:42.057Z,13.80
2024-04-26T02:25:29.952Z,11.30
2024-04-26T02:26:19.613Z,9.00
2024-04-26T02:27:07.465Z,12.40
2024-04-26T02:27:55.597Z,12.10
2024-04-26T02:28:43.458Z,10.60
2024-04-26T02:29:31.256Z,14.00
2024-04-26T02:30:19.167Z,10.40
2024-04-26T02:31:12.107Z,12.20
2024-04-26T02:31:59.973Z,8.40
2024-04-26T02:32:48.053Z,14.50
2024-04-26T02:33:37.883Z,10.30
2024-04-26T02:34:26.051Z,11.50
2024-04-26T02:35:15.828Z,10.90
2024-04-26T02:36:08.220Z,10.30
2024-04-26T02:36:56.200Z,13.10
2024-04-26T02:37:44.024Z,9.50
2024-04-26T02:38:32.443Z,12.00
2024-04-26T02:39:20.300Z,12.70
2024-04-26T02:40:08.384Z,9.20
2024-04-26T02:40:56.053Z,11.00
2024-04-26T02:41:43.984Z,12.70
2024-04-26T02:42:31.846Z,12.10
2024-04-26T02:43:19.530Z,9.90
2024-04-26T02:44:07.410Z,11.00
2024-04-26T02:44:55.829Z,7.20
2024-04-26T02:45:43.789Z,15.10
2024-04-26T02:46:35.391Z,9.50
2024-04-26T02:47:23.308Z,10.10
2024-04-26T02:48:11.318Z,13.50
2024-04-26T02:48:59.361Z,11.80
2024-04-26T02:49:49.227Z,11.00
2024-04-26T02:50:37.005Z,12.40
2024-04-26T02:51:24.761Z,13.20
2024-04-26T02:52:12.542Z,12.10
2024-04-26T02:53:00.357Z,12.50
2024-04-26T02:53:48.760Z,13.30
2024-04-26T02:54:36.501Z,13.30
2024-04-26T02:55:25.909Z,11.30
2024-04-26T02:56:13.863Z,13.70
2024-04-26T02:57:04.610Z,10.10
2024-04-26T02:57:52.399Z,7.40
2024-04-26T02:58:40.758Z,8.20
2024-04-26T02:59:29.422Z,9.50
2024-04-26T03:00:18.755Z,11.90
2024-04-26T03:01:08.117Z,10.20
2024-04-26T03:01:56.813Z,11.40
2024-04-26T03:02:48.100Z,12.90
2024-04-26T03:03:37.199Z,12.10
2024-04-26T03:04:25.498Z,11.30
2024-04-26T03:05:13.525Z,10.30
2024-04-26T03:06:08.754Z,9.10
2024-04-26T03:06:56.743Z,10.30
2024-04-26T03:07:44.708Z,10.00
2024-04-26T03:08:32.509Z,10.50
2024-04-26T03:09:20.408Z,10.10
2024-04-26T03:10:11.309Z,13.60
2024-04-26T03:11:02.658Z,10.20
2024-04-26T03:11:50.658Z,11.10
2024-04-26T03:12:39.348Z,10.20
2024-04-26T03:13:28.925Z,11.70
2024-04-26T03:14:16.831Z,12.40
2024-04-26T03:15:05.906Z,12.30
2024-04-26T03:15:54.505Z,10.10
2024-04-26T03:16:43.566Z,10.60
2024-04-26T03:17:31.720Z,9.60
2024-04-26T03:18:20.462Z,11.50
2024-04-26T03:19:08.916Z,12.10
2024-04-26T03:19:56.899Z,10.70
2024-04-26T03:20:44.914Z,12.90
2024-04-26T03:21:32.878Z,13.00
2024-04-26T03:22:21.374Z,11.50
2024-04-26T03:23:09.879Z,8.70
2024-04-26T03:23:58.367Z,10.90
2024-04-26T03:24:46.218Z,10.50
2024-04-26T03:25:34.010Z,10.80
2024-04-26T03:26:21.870Z,12.60
2024-04-26T03:27:10.492Z,9.50
2024-04-26T03:28:00.688Z,9.60
2024-04-26T03:28:48.555Z,11.30
2024-04-26T03:29:37.747Z,8.20
2024-04-26T03:30:25.574Z,12.70
2024-04-26T03:31:15.005Z,11.60
2024-04-26T03:32:03.540Z,13.40
2024-04-26T03:32:52.203Z,12.60
2024-04-26T03:33:46.016Z,10.40
2024-04-26T03:34:33.918Z,12.00
2024-04-26T03:35:21.642Z,8.60
2024-04-26T03:36:09.714Z,11.80
2024-04-26T03:36:57.475Z,8.50
2024-04-26T03:37:45.942Z,12.10
2024-04-26T03:38:33.654Z,11.70
2024-04-26T03:39:21.736Z,11.10
2024-04-26T03:40:13.353Z,11.80
2024-04-26T03:41:01.799Z,11.20
2024-04-26T03:41:49.720Z,11.90
2024-04-26T03:42:37.481Z,9.10
2024-04-26T03:43:25.374Z,11.30
2024-04-26T03:44:13.255Z,14.10
2024-04-26T03:45:01.183Z,10.20
2024-04-26T03:45:49.102Z,12.90
2024-04-26T03:46:41.899Z,9.20
2024-04-26T03:47:30.000Z,10.40
2024-04-26T03:48:18.140Z,12.90
2024-04-26T03:49:06.136Z,9.80
2024-04-26T03:49:54.627Z,10.70
2024-04-26T03:50:42.484Z,11.40
2024-04-26T03:51:31.398Z,11.30
2024-04-26T03:52:19.989Z,8.20
2024-04-26T03:53:09.604Z,11.80
2024-04-26T03:53:57.487Z,13.00
2024-04-26T03:54:45.571Z,9.60
2024-04-26T03:55:33.942Z,11.40
2024-04-26T03:56:22.565Z,14.20
2024-04-26T03:57:12.656Z,8.90
2024-04-26T03:58:05.307Z,10.70
2024-04-26T03:58:53.166Z,10.90
2024-04-26T03:59:43.374Z,10.00
2024-04-26T04:00:34.091Z,10.30
2024-04-26T04:01:21.872Z,13.20
2024-04-26T04:02:10.395Z,11.20
2024-04-26T04:02:59.843Z,10.10
2024-04-26T04:03:48.007Z,12.00
2024-04-26T04:04:36.069Z,12.30
2024-04-26T04:05:27.989Z,12.10
2024-04-26T04:06:16.191Z,12.60
2024-04-26T04:07:04.234Z,12.50
2024-04-26T04:07:53.620Z,10.90
2024-04-26T04:08:43.369Z,10.40
2024-04-26T04:09:31.149Z,11.30
2024-04-26T04:10:19.036Z,8.20
2024-04-26T04:11:07.110Z,11.20
2024-04-26T04:11:56.217Z,9.90
2024-04-26T04:12:46.758Z,8.30
2024-04-26T04:13:35.430Z,14.10
2024-04-26T04:14:23.955Z,10.20
2024-04-26T04:15:12.048Z,11.30
2024-04-26T04:15:59.866Z,10.60
2024-04-26T04:16:48.027Z,10.60
2024-04-26T04:17:37.363Z,9.70
2024-04-26T04:18:27.365Z,15.60
2024-04-26T04:19:15.474Z,11.80
2024-04-26T04:20:03.785Z,11.20
2024-04-26T04:20:51.633Z,12.00
2024-04-26T04:21:39.429Z,10.90
2024-04-26T04:22:27.296Z,12.70
2024-04-26T04:23:15.137Z,12.00
2024-04-26T04:24:03.233Z,11.60
2024-04-26T04:24:51.157Z,12.30
2024-04-26T04:25:39.112Z,10.50
2024-04-26T04:26:26.967Z,11.40
2024-04-26T04:27:14.975Z,11.10
2024-04-26T04:28:04.339Z,10.80
2024-04-26T04:28:52.773Z,11.70
2024-04-26T04:29:40.691Z,9.00
2024-04-26T04:30:29.018Z,10.50
2024-04-26T04:31:17.047Z,12.60
2024-04-26T04:32:05.646Z,12.20
2024-04-26T04:32:53.603Z,10.50
2024-04-26T04:33:41.685Z,11.80
2024-04-26T04:34:30.009Z,9.50
2024-04-26T04:35:18.527Z,8.30
2024-04-26T04:36:06.589Z,9.80
2024-04-26T04:36:55.206Z,10.40
2024-04-26T04:37:43.145Z,9.60
2024-04-26T04:38:31.538Z,9.90
2024-04-26T04:39:19.320Z,7.40
2024-04-26T04:40:07.660Z,9.10
2024-04-26T04:40:55.480Z,11.40
2024-04-26T04:41:45.738Z,12.00
2024-04-26T04:42:33.565Z,11.50
2024-04-26T04:43:22.138Z,9.50
2024-04-26T04:44:10.121Z,14.80
2024-04-26T04:44:59.219Z,10.70
2024-04-26T04:45:48.902Z,9.80
2024-04-26T04:46:38.131Z,8.90
2024-04-26T04:47:26.144Z,8.80
2024-04-26T04:48:17.383Z,10.70
2024-04-26T04:49:05.479Z,9.40
2024-04-26T04:49:53.378Z,8.20
2024-04-26T04:50:41.385Z,9.80
2024-04-26T04:51:29.449Z,8.70
2024-04-26T04:52:17.233Z,9.80
2024-04-26T04:53:06.602Z,11.10
2024-04-26T04:53:54.588Z,12.30
2024-04-26T04:54:42.781Z,9.60
2024-04-26T04:55:30.623Z,9.10
2024-04-26T04:56:18.542Z,14.20
2024-04-26T04:57:07.472Z,9.40
2024-04-26T04:57:55.330Z,7.40
2024-04-26T04:58:43.206Z,9.50
2024-04-26T04:59:31.030Z,14.40
2024-04-26T05:00:19.939Z,11.70
2024-04-26T05:01:07.769Z,16.20
2024-04-26T05:01:55.533Z,7.80
2024-04-26T05:02:43.453Z,8.60
2024-04-26T05:03:31.381Z,12.10
2024-04-26T05:04:19.579Z,12.20
2024-04-26T05:05:07.749Z,10.50
2024-04-26T05:05:55.735Z,10.10
2024-04-26T05:06:45.567Z,14.40
2024-04-26T05:07:33.470Z,9.00
2024-04-26T05:08:21.348Z,7.10
2024-04-26T05:09:09.389Z,10.80
2024-04-26T05:09:57.486Z,11.20
2024-04-26T05:10:45.513Z,12.30
2024-04-26T05:11:33.414Z,11.80
2024-04-26T05:12:24.163Z,13.70
2024-04-26T05:13:13.783Z,15.10
2024-04-26T05:14:01.678Z,9.80
2024-04-26T05:14:49.537Z,11.60
2024-04-26T05:15:37.407Z,14.00
2024-04-26T05:16:26.531Z,10.50
2024-04-26T05:17:15.249Z,10.40
2024-04-26T05:18:03.871Z,9.00
2024-04-26T05:18:51.998Z,10.70
2024-04-26T05:19:40.641Z,9.10
2024-04-26T05:20:28.700Z,12.50
2024-04-26T05:21:17.187Z,11.20
2024-04-26T05:22:04.976Z,12.00
2024-04-26T05:22:53.429Z,11.00
2024-04-26T05:23:41.207Z,12.00
2024-04-26T05:24:31.878Z,11.60
2024-04-26T05:25:20.624Z,14.70
2024-04-26T05:26:08.363Z,11.60
2024-04-26T05:26:56.317Z,13.40
2024-04-26T05:27:44.057Z,10.40
2024-04-26T05:28:31.707Z,10.20
2024-04-26T05:29:20.883Z,8.20
2024-04-26T05:30:09.563Z,13.10
2024-04-26T05:30:59.932Z,9.10
2024-04-26T05:31:49.807Z,12.30
2024-04-26T05:32:38.337Z,12.60
2024-04-26T05:33:26.509Z,12.40
2024-04-26T05:34:14.503Z,12.10
2024-04-26T05:35:02.521Z,10.90
2024-04-26T05:35:50.398Z,11.60
2024-04-26T05:36:38.235Z,10.50
2024-04-26T05:37:26.219Z,11.90
2024-04-26T05:38:14.274Z,13.50
2024-04-26T05:39:02.194Z,17.50
2024-04-26T05:39:49.953Z,11.30
2024-04-26T05:40:37.831Z,11.40
2024-04-26T05:41:25.602Z,9.30
2024-04-26T05:42:13.408Z,14.40
2024-04-26T05:43:01.215Z,12.40
2024-04-26T05:43:49.347Z,12.00
2024-04-26T05:44:37.414Z,12.50
2024-04-26T05:45:25.750Z,10.70
2024-04-26T05:46:16.598Z,11.90
2024-04-26T05:47:05.221Z,9.50
2024-04-26T05:47:53.671Z,11.90
2024-04-26T05:48:41.819Z,9.60
2024-04-26T05:49:29.889Z,11.70
2024-04-26T05:50:18.409Z,11.90
2024-04-26T05:51:08.975Z,9.70
2024-04-26T05:51:56.923Z,9.20
2024-04-26T05:52:50.821Z,11.10
2024-04-26T05:53:39.269Z,11.60
2024-04-26T05:54:27.749Z,10.10
2024-04-26T05:55:16.151Z,11.80
2024-04-26T05:56:04.096Z,10.30
2024-04-26T05:56:52.069Z,10.70
2024-04-26T05:57:39.900Z,9.80
2024-04-26T05:58:28.431Z,11.50
2024-04-26T05:59:18.791Z,11.30
2024-04-26T06:00:07.262Z,11.40
2024-04-26T06:00:55.174Z,13.30
2024-04-26T06:01:42.992Z,8.60
2024-04-26T06:02:31.461Z,11.40
2024-04-26T06:03:19.322Z,12.70
2024-04-26T06:04:07.779Z,14.90
2024-04-26T06:05:02.504Z,9.80
2024-04-26T06:05:52.859Z,11.60
2024-04-26T06:06:45.679Z,15.60
2024-04-26T06:08:21.125Z,12.00
2024-04-26T06:09:09.474Z,11.60
2024-04-26T06:09:57.265Z,13.20
2024-04-26T06:10:46.343Z,13.80
2024-04-26T06:11:34.178Z,12.10
2024-04-26T06:12:22.188Z,11.50
2024-04-26T06:13:18.224Z,9.20
2024-04-26T06:14:15.662Z,11.40
2024-04-26T06:15:04.207Z,11.20
2024-04-26T06:15:52.504Z,13.00
2024-04-26T06:16:40.926Z,16.30
2024-04-26T06:17:29.627Z,9.10
2024-04-26T06:18:20.548Z,11.00
2024-04-26T06:19:08.346Z,10.90
2024-04-26T06:19:58.579Z,11.00
2024-04-26T06:20:47.427Z,9.90
2024-04-26T06:21:38.156Z,12.40
2024-04-26T06:22:25.851Z,9.10
2024-04-26T06:23:13.683Z,12.50
2024-04-26T06:24:02.159Z,10.50
2024-04-26T06:24:50.548Z,10.90
2024-04-26T06:25:38.235Z,8.70
2024-04-26T06:26:27.101Z,11.60
2024-04-26T06:27:14.868Z,13.00
2024-04-26T06:28:02.704Z,12.80
2024-04-26T06:28:52.049Z,10.70
2024-04-26T06:29:39.873Z,10.10
2024-04-26T06:30:27.789Z,12.40
2024-04-26T06:31:15.593Z,9.90
2024-04-26T06:32:04.655Z,15.00
2024-04-26T06:32:52.716Z,9.00
2024-04-26T06:33:40.748Z,13.70
2024-04-26T06:34:28.750Z,11.50
2024-04-26T06:35:16.593Z,13.50
2024-04-26T06:36:05.239Z,9.80
2024-04-26T06:36:53.158Z,13.10
2024-04-26T06:37:41.689Z,10.10
2024-04-26T06:38:31.026Z,9.80
2024-04-26T06:39:18.799Z,10.90
2024-04-26T06:40:07.119Z,10.40
2024-04-26T06:40:57.021Z,9.80
2024-04-26T06:41:44.889Z,12.90
2024-04-26T06:42:33.355Z,9.20
2024-04-26T06:43:22.653Z,11.20
2024-04-26T06:44:20.529Z,9.40
2024-04-26T06:45:09.349Z,9.50
2024-04-26T06:45:57.101Z,14.90
2024-04-26T06:46:46.426Z,13.60
2024-04-26T06:47:34.567Z,11.80
2024-04-26T06:48:24.848Z,10.40
2024-04-26T06:49:15.184Z,7.80
2024-04-26T06:50:05.802Z,13.10
2024-04-26T06:50:53.680Z,13.40
2024-04-26T06:51:42.097Z,10.90
2024-04-26T06:52:29.812Z,9.50
2024-04-26T06:53:17.757Z,9.20
2024-04-26T06:54:06.275Z,12.60
2024-04-26T06:54:54.440Z,10.40
2024-04-26T06:55:43.157Z,9.40
2024-04-26T06:56:32.523Z,10.70
2024-04-26T06:57:20.342Z,9.00
2024-04-26T06:58:08.471Z,8.40
2024-04-26T06:58:56.686Z,11.40
2024-04-26T06:59:46.029Z,12.90
2024-04-26T07:00:34.524Z,8.90
2024-04-26T07:01:22.267Z,11.00
2024-04-26T07:02:11.126Z,9.50
2024-04-26T07:02:59.855Z,13.00
2024-04-26T07:03:48.112Z,10.40
2024-04-26T07:04:36.401Z,11.00
2024-04-26T07:05:24.431Z,10.00
2024-04-26T07:06:12.297Z,13.50
2024-04-26T07:07:00.062Z,15.00
2024-04-26T07:07:49.349Z,10.30
2024-04-26T07:08:37.286Z,10.80
2024-04-26T07:09:25.110Z,11.40
2024-04-26T07:10:12.996Z,13.20
2024-04-26T07:11:00.867Z,10.60
2024-04-26T07:11:48.685Z,10.70
2024-04-26T07:12:37.180Z,15.50
2024-04-26T07:13:24.943Z,11.70
2024-04-26T07:14:13.693Z,11.60
2024-04-26T07:15:01.492Z,10.00
2024-04-26T07:15:49.248Z,8.60
2024-04-26T07:16:37.636Z,10.10
2024-04-26T07:17:25.638Z,12.40
2024-04-26T07:18:13.620Z,10.00
2024-04-26T07:19:01.774Z,10.10
2024-04-26T07:19:50.787Z,9.90
2024-04-26T07:20:38.907Z,7.80
2024-04-26T07:21:26.634Z,11.90
2024-04-26T07:22:14.345Z,9.80
2024-04-26T07:23:03.958Z,9.90
2024-04-26T07:23:52.409Z,11.80
2024-04-26T07:24:40.983Z,12.80
2024-04-26T07:25:28.763Z,10.20
2024-04-26T07:26:17.462Z,12.10
2024-04-26T07:27:05.610Z,9.60
2024-04-26T07:27:54.068Z,11.30
2024-04-26T07:28:41.836Z,9.60
2024-04-26T07:29:29.945Z,11.90
2024-04-26T07:30:17.831Z,9.50
2024-04-26T07:31:05.720Z,8.80
2024-04-26T07:31:54.581Z,11.30
2024-04-26T07:32:42.522Z,9.40
2024-04-26T07:33:30.442Z,11.10
2024-04-26T07:34:18.721Z,13.20
2024-04-26T07:35:07.105Z,10.90
2024-04-26T07:35:55.000Z,9.70
2024-04-26T07:36:43.152Z,10.60
2024-04-26T07:37:31.029Z,9.70
2024-04-26T07:38:18.772Z,11.30
2024-04-26T07:39:07.390Z,9.50
2024-04-26T07:39:55.360Z,9.50
2024-04-26T07:40:43.139Z,12.10
2024-04-26T07:41:30.927Z,9.40
2024-04-26T07:42:18.757Z,11.70
2024-04-26T07:43:06.519Z,13.50
2024-04-26T07:43:56.497Z,9.30
2024-04-26T07:44:44.368Z,12.40
2024-04-26T07:45:32.218Z,11.00
2024-04-26T07:46:20.725Z,10.10
2024-04-26T07:47:14.129Z,8.40
2024-04-26T07:48:04.578Z,8.30
2024-04-26T07:48:54.129Z,9.30
2024-04-26T07:49:42.807Z,9.70
2024-04-26T07:50:31.542Z,8.90
2024-04-26T07:51:19.599Z,11.80
2024-04-26T07:52:07.419Z,12.10
2024-04-26T07:52:55.202Z,9.50
2024-04-26T07:53:43.665Z,7.70
2024-04-26T07:54:31.518Z,11.20
2024-04-26T07:55:20.044Z,12.20
2024-04-26T07:56:08.439Z,10.40
2024-04-26T07:56:57.086Z,8.40
2024-04-26T07:57:44.849Z,10.70
2024-04-26T07:58:32.731Z,10.60
2024-04-26T07:59:20.487Z,6.90
2024-04-26T08:00:08.757Z,8.80
2024-04-26T08:00:57.185Z,8.60
2024-04-26T08:01:45.749Z,7.60
2024-04-26T08:02:33.824Z,9.40
2024-04-26T08:03:22.456Z,8.10
2024-04-26T08:04:10.471Z,7.20
2024-04-26T08:05:02.333Z,7.50
2024-04-26T08:05:50.984Z,9.40
2024-04-26T08:06:40.323Z,8.40
2024-04-26T08:07:29.230Z,7.00
2024-04-26T08:08:17.803Z,7.00
2024-04-26T08:09:06.164Z,8.20
2024-04-26T08:09:54.608Z,6.40
2024-04-26T08:10:42.462Z,8.00
2024-04-26T08:11:30.489Z,8.90
2024-04-26T08:12:18.492Z,9.60
2024-04-26T08:13:06.312Z,9.10
2024-04-26T08:13:53.990Z,9.40
2024-04-26T08:14:42.526Z,8.00
2024-04-26T08:15:30.358Z,8.00
2024-04-26T08:16:19.105Z,8.10
2024-04-26T08:17:07.080Z,7.50
2024-04-26T08:17:55.103Z,9.10
2024-04-26T08:18:43.014Z,12.00
2024-04-26T08:19:31.058Z,9.40
2024-04-26T08:20:18.935Z,9.00
2024-04-26T08:21:07.483Z,9.30
2024-04-26T08:21:57.268Z,7.30
2024-04-26T08:22:45.614Z,10.60
2024-04-26T08:23:33.359Z,7.00
2024-04-26T08:24:21.136Z,8.30
2024-04-26T08:25:15.911Z,7.80
2024-04-26T08:26:11.149Z,8.30
2024-04-26T08:27:00.383Z,7.80
2024-04-26T08:27:49.905Z,5.40
2024-04-26T08:28:37.777Z,7.90
2024-04-26T08:29:25.601Z,5.90
2024-04-26T08:30:14.369Z,7.90
2024-04-26T08:31:02.238Z,11.30
2024-04-26T08:31:50.266Z,8.10
2024-04-26T08:32:44.867Z,10.30
2024-04-26T08:33:38.864Z,9.90
2024-04-26T08:34:27.143Z,6.50
2024-04-26T08:35:15.822Z,8.20
2024-04-26T08:36:04.127Z,8.30
2024-04-26T08:36:52.751Z,7.30
2024-04-26T08:37:41.987Z,6.50
2024-04-26T08:38:30.082Z,8.50
2024-04-26T08:39:18.622Z,6.60
2024-04-26T08:40:07.191Z,7.80
2024-04-26T08:40:55.473Z,7.60
2024-04-26T08:41:43.397Z,6.40
2024-04-26T08:42:31.988Z,9.20
2024-04-26T08:43:20.790Z,7.00
2024-04-26T08:44:10.469Z,6.90
2024-04-26T08:44:58.339Z,5.70
2024-04-26T08:45:47.137Z,7.40
2024-04-26T08:46:44.643Z,7.30
2024-04-26T08:47:38.825Z,7.60
2024-04-26T08:48:29.461Z,6.50
2024-04-26T08:49:19.240Z,5.90
2024-04-26T08:50:08.069Z,8.30
2024-04-26T08:50:59.291Z,5.70
2024-04-26T08:51:52.709Z,5.90
2024-04-26T08:52:42.070Z,6.10
2024-04-26T08:53:30.693Z,6.50
2024-04-26T08:54:19.626Z,10.10
2024-04-26T08:55:08.258Z,6.90
2024-04-26T08:55:57.564Z,7.60
2024-04-26T08:56:49.546Z,9.60
2024-04-26T08:57:38.598Z,5.00
2024-04-26T08:58:26.911Z,9.30
2024-04-26T08:59:17.053Z,7.80
2024-04-26T09:00:06.616Z,9.20
2024-04-26T09:00:55.402Z,7.20
2024-04-26T09:01:45.360Z,6.20
2024-04-26T09:02:34.095Z,6.20
2024-04-26T09:03:23.565Z,7.20
2024-04-26T09:04:13.083Z,6.10
2024-04-26T09:05:02.935Z,8.70
2024-04-26T09:05:53.483Z,7.00
2024-04-26T09:06:41.228Z,8.20
2024-04-26T09:07:29.082Z,7.00
2024-04-26T09:08:17.552Z,7.70
2024-04-26T09:09:05.671Z,7.30
2024-04-26T09:09:56.504Z,7.70
2024-04-26T09:10:44.356Z,8.70
2024-04-26T09:11:32.274Z,6.10
2024-04-26T09:12:20.251Z,7.10
2024-04-26T09:13:08.144Z,9.20
2024-04-26T09:13:55.821Z,5.10
2024-04-26T09:14:43.862Z,5.50
2024-04-26T09:15:32.128Z,9.10
2024-04-26T09:16:20.360Z,7.10
2024-04-26T09:17:08.936Z,6.90
2024-04-26T09:17:56.947Z,6.60
2024-04-26T09:18:45.639Z,6.70
2024-04-26T09:19:33.649Z,10.80
2024-04-26T09:20:21.502Z,7.10
2024-04-26T09:21:10.044Z,5.90
2024-04-26T09:21:58.035Z,6.30
2024-04-26T09:22:46.091Z,6.00
2024-04-26T09:23:34.102Z,4.80
2024-04-26T09:24:22.197Z,7.40
2024-04-26T09:25:10.133Z,7.00
2024-04-26T09:26:04.224Z,5.50
2024-04-26T09:26:52.812Z,5.70
2024-04-26T09:27:40.607Z,9.60
2024-04-26T09:28:28.359Z,6.90
2024-04-26T09:29:16.063Z,7.50
2024-04-26T09:30:04.750Z,5.90
2024-04-26T09:30:52.960Z,4.80
2024-04-26T09:31:41.523Z,5.90
2024-04-26T09:33:21.685Z,6.50
2024-04-26T09:34:12.849Z,7.40
2024-04-26T09:35:03.047Z,7.30
2024-04-26T09:35:54.513Z,5.90
2024-04-26T09:36:45.950Z,4.70
2024-04-26T09:37:35.199Z,6.00
2024-04-26T09:38:24.351Z,4.50
2024-04-26T09:39:13.706Z,8.20
2024-04-26T09:40:01.878Z,4.80
2024-04-26T09:40:52.237Z,5.20
2024-04-26T09:41:45.254Z,5.80
2024-04-26T09:42:34.868Z,6.60
2024-04-26T09:43:22.981Z,6.00
2024-04-26T09:44:13.305Z,5.10
2024-04-26T09:45:04.290Z,6.90
2024-04-26T09:45:54.426Z,5.30
2024-04-26T09:46:42.365Z,4.50
2024-04-26T09:47:31.279Z,5.90
2024-04-26T09:48:19.885Z,6.30
2024-04-26T09:49:09.247Z,7.00
2024-04-26T09:49:58.326Z,5.70
2024-04-26T09:50:48.299Z,5.40
2024-04-26T09:51:44.927Z,6.40
2024-04-26T09:52:35.956Z,6.60
2024-04-26T09:53:24.316Z,5.40
2024-04-26T09:54:12.766Z,6.00
2024-04-26T09:55:02.350Z,6.20
2024-04-26T09:55:50.783Z,6.70
2024-04-26T09:56:40.816Z,9.20
2024-04-26T09:57:28.516Z,4.60
2024-04-26T10:09:37.570Z,3.00
2024-04-26T10:35:21.658Z,6.50
2024-04-26T10:36:13.335Z,6.20
2024-04-26T10:37:01.579Z,3.60
2024-04-26T10:37:51.008Z,3.00
2024-04-26T10:38:40.412Z,5.90
2024-04-26T10:39:29.212Z,4.80
2024-04-26T10:40:17.192Z,5.10
2024-04-26T10:41:05.020Z,5.40
2024-04-26T10:41:53.229Z,4.60
2024-04-26T10:42:41.410Z,3.90
2024-04-26T10:43:29.639Z,4.30
2024-04-26T10:44:18.583Z,6.10
2024-04-26T10:45:07.273Z,7.10
2024-04-26T10:45:56.841Z,4.10
2024-04-26T10:46:45.159Z,6.70
2024-04-26T10:47:33.260Z,4.70
2024-04-26T10:48:22.460Z,5.60
2024-04-26T10:49:12.610Z,4.60
2024-04-26T10:50:00.882Z,3.90
2024-04-26T10:50:49.079Z,3.80
2024-04-26T10:51:37.119Z,4.60
2024-04-26T10:52:25.116Z,3.20
2024-04-26T10:53:13.058Z,4.40
2024-04-26T10:54:01.904Z,4.00
2024-04-26T10:54:51.499Z,3.70
2024-04-26T10:55:40.456Z,3.60
2024-04-26T10:56:40.595Z,3.70
2024-04-26T10:57:28.612Z,3.60
2024-04-26T10:58:16.714Z,3.70
2024-04-26T10:59:04.636Z,3.30
2024-04-26T10:59:54.010Z,3.70
2024-04-26T11:00:42.238Z,2.70
2024-04-26T11:01:34.403Z,2.60
2024-04-26T11:02:23.635Z,3.90
2024-04-26T11:03:13.382Z,4.00
2024-04-26T11:04:02.249Z,3.30
2024-04-26T11:05:07.310Z,3.90
2024-04-26T11:05:55.283Z,4.50
2024-04-26T11:06:43.336Z,2.70
2024-04-26T11:07:31.441Z,3.00
2024-04-26T11:08:22.655Z,2.40
2024-04-26T11:09:14.115Z,1.80
2024-04-26T11:10:03.839Z,4.00
2024-04-26T11:10:52.814Z,2.80
2024-04-26T11:11:56.096Z,3.80
2024-04-26T11:12:44.280Z,3.00
2024-04-26T11:13:32.231Z,2.40
2024-04-26T11:14:21.176Z,3.20
2024-04-26T11:15:09.230Z,3.30
2024-04-26T11:15:57.769Z,2.70